Warning: Javascript must be enabled to use all the features on this page!


Page Loading - Please Wait...

Click to hideNews Bulletins

Peak Streamflow for the Nation

USGS 03061000 WEST FORK RIVER AT ENTERPRISE, WV

Harrison County, West Virginia
Hydrologic Unit Code 05020002
Latitude  39°25'20", Longitude  80°16'34" NAD27
Drainage area 759  square miles
Gage datum 869.02 feet above NAVD88
Output formats
Table
Graph
Tab-separated file
peakfq (watstore) format
Reselect output format
Water
Year
Date Gage
Height
(feet)
Stream-
flow
(cfs)
1888 1888 33.003,Bm 48,0002,7,Bm
1908 1908-05-05 16.403 16,000
1909 1909-02-16 10.903 8,780
1910 1910-01-19 13.603 12,200
1911 1911-01-30 17.603 17,700
1912 1912-07-25 16.603 16,300
1913 1913-01-12 17.603 17,700
1914 1913-11-16 18.853 19,400
1915 1915-01-12 15.003 14,100
1916 1915-12-18 17.103 17,000
1933 1933-05-12 16.133 16,200
1934 1934-01-07 17.386 18,200
1935 1935-03-12 20.00 22,300
1936 1936-03-17 19.882 24,200
1937 1937-01-23 19.23 23,000
1938 1937-10-29 20.60 25,500
1939 1939-04-17 21.57 27,300
1940 1940-05-31 17.53 21,200
1941 1941-06-04 17.66 21,800
1942 1942-04-10 12.32 11,000
1943 1942-12-30 18.13 22,800
1944 1944-02-23 16.79 17,900
1945 1944-12-26 21.55 26,700
1946 1946-06-02 15.95 16,500
1947 1947-06-09 10.60 8,240
1948 1948-02-14 25.56 31,400
1949 1948-12-16 21.51 24,200
1950 1950-06-25 19.63 20,200
1951 1951-02-01 23.22 25,600
1952 1952-01-28 15.77 14,700
1953 1953-01-09 12.88 10,800
1954 1954-08-26 9.57 6,660
1955 1954-10-16 19.88 20,600
1956 1956-08-06 24.43 27,500
1957 1956-12-14 24.45 27,500
1958 1958-05-05 17.05 16,400
1959 1959-01-21 13.37 11,400
1960 1960-01-15 14.89 13,500
1961 1961-02-15 14.80 13,300
1962 1962-03-22 15.89 14,900
1963 1963-03-05 27.84 36,000
1964 1964-04-08 10.98 8,280
1965 1965-03-26 12.52 10,300
1966 1966-05-01 18.70 19,700
1967 1967-03-07 28.05 36,500
1968 1968-05-24 25.20 31,000
1969 1969-08-10 12.68 10,600
1970 1969-12-31 17.02 17,000
1971 1971-01-05 16.33 15,900
1972 1972-06-24 12.10 9,740
1973 1972-12-09 21.25 23,9005
1974 1974-01-11 22.15 25,5005
1975 1975-04-26 17.47 17,8005
1976 1976-01-01 15.60 14,8005
1977 1976-10-09 17.67 18,1005
1978 1978-01-26 25.14 30,9005
1979 1978-12-09 23.34 27,6005
1980 1980-03-06 13.90 12,3005
1981 1981-06-06 22.31 25,8005
1982 1982-01-23 17.09 17,1005
1983 1983-05-17 12.44 10,2005
1984 1984-03-29 13.67 11,9005
1985 1985-03-12 14.01 12,4005
1986 1985-11-05 30.37 41,1005
1987 1986-11-09 13.89 12,2005
1988 1988-03-05 11.38 8,7905
1989 1989-03-07 21.27 24,0005
1990 1990-05-27 17.16 17,3006
1991 1990-12-19 18.84 19,9006
1992 1992-03-11 11.90 9,4706
1993 1993-03-05 15.99 15,4006
1994 1994-02-09 22.13 25,4006
1995 1995-05-18 15.84 15,2006
1996 1996-05-17 23.74 28,3006
1997 1997-03-02 19.95 21,7006
1998 1998-06-29 17.57 17,8006
1999 1999-03-06 11.95 9,2406
2000 2000-02-19 25.13 30,3006
2001 2001-01-30 14.96 13,9006
2002 2002-03-20 15.98 15,5006
2003 2003-02-23 21.69 24,5006
2004 2003-11-19 23.81 28,1006
2005 2005-01-05 14.03 12,5006
2006 2006-01-23 17.44 17,7006
2007 2007-04-15 15.64 15,0006
2008 2007-12-13 24.16 28,6006
2009 2009-05-04 22.63 26,1006
2010 2010-01-25 12.99 11,0006
2011 2011-04-20 18.49 19,2006
2012 2012-03-01 19.29 20,4006
2013 2013-01-31 15.29 14,3006
2014 2014-02-06 16.42 16,0006
2015 2015-03-04 19.50 20,7006
2016 2016-02-16 14.49 13,1006
2017 2017-07-29 20.82 22,8006
2018 2018-02-16 20.59 22,4006
2019 2019-02-21 14.61 13,3006
?
  Peak Gage-Height Qualification Codes.
?
  Peak Streamflow Qualification Codes.